sensor_id;sensor_type;location;lat;lon;timestamp;P1;durP1;ratioP1;P2;durP2;ratioP2
29202;SDS011;16245;51.170;4.884;2023-01-01T00:01:29;8.50;;;3.15;;
29202;SDS011;16245;51.170;4.884;2023-01-01T00:03:55;9.00;;;3.45;;
29202;SDS011;16245;51.170;4.884;2023-01-01T00:06:22;11.43;;;3.72;;
29202;SDS011;16245;51.170;4.884;2023-01-01T00:08:49;11.80;;;3.72;;
29202;SDS011;16245;51.170;4.884;2023-01-01T00:11:34;10.65;;;3.17;;
29202;SDS011;16245;51.170;4.884;2023-01-01T00:14:00;11.63;;;3.15;;
29202;SDS011;16245;51.170;4.884;2023-01-01T00:16:26;13.82;;;2.50;;
29202;SDS011;16245;51.170;4.884;2023-01-01T00:18:51;10.57;;;2.72;;
29202;SDS011;16245;51.170;4.884;2023-01-01T00:21:17;6.72;;;2.67;;
29202;SDS011;16245;51.170;4.884;2023-01-01T00:23:43;11.75;;;3.17;;
29202;SDS011;16245;51.170;4.884;2023-01-01T00:26:09;8.23;;;2.38;;
29202;SDS011;16245;51.170;4.884;2023-01-01T00:28:40;7.35;;;3.05;;
29202;SDS011;16245;51.170;4.884;2023-01-01T00:31:13;9.48;;;2.80;;
29202;SDS011;16245;51.170;4.884;2023-01-01T00:33:53;12.93;;;3.13;;
29202;SDS011;16245;51.170;4.884;2023-01-01T00:36:20;11.38;;;2.78;;
29202;SDS011;16245;51.170;4.884;2023-01-01T00:38:47;11.80;;;2.90;;
29202;SDS011;16245;51.170;4.884;2023-01-01T00:41:13;17.77;;;3.30;;
29202;SDS011;16245;51.170;4.884;2023-01-01T00:43:40;10.90;;;2.92;;
29202;SDS011;16245;51.170;4.884;2023-01-01T00:46:06;9.75;;;2.83;;
29202;SDS011;16245;51.170;4.884;2023-01-01T00:48:32;6.78;;;2.83;;
29202;SDS011;16245;51.170;4.884;2023-01-01T00:50:58;6.68;;;2.50;;
29202;SDS011;16245;51.170;4.884;2023-01-01T00:53:24;8.73;;;3.33;;
29202;SDS011;16245;51.170;4.884;2023-01-01T00:55:50;6.90;;;3.03;;
29202;SDS011;16245;51.170;4.884;2023-01-01T00:58:16;11.55;;;3.05;;
29202;SDS011;16245;51.170;4.884;2023-01-01T01:00:43;5.97;;;2.38;;
29202;SDS011;16245;51.170;4.884;2023-01-01T01:03:10;7.65;;;2.50;;
29202;SDS011;16245;51.170;4.884;2023-01-01T01:05:52;8.75;;;2.78;;
29202;SDS011;16245;51.170;4.884;2023-01-01T01:08:40;9.20;;;3.00;;
29202;SDS011;16245;51.170;4.884;2023-01-01T01:13:37;13.15;;;3.33;;
29202;SDS011;16245;51.170;4.884;2023-01-01T01:16:07;12.38;;;2.70;;
29202;SDS011;16245;51.170;4.884;2023-01-01T01:18:34;9.55;;;2.65;;
29202;SDS011;16245;51.170;4.884;2023-01-01T01:21:00;14.77;;;3.63;;
29202;SDS011;16245;51.170;4.884;2023-01-01T01:23:26;8.55;;;2.65;;
29202;SDS011;16245;51.170;4.884;2023-01-01T01:25:51;8.38;;;2.58;;
29202;SDS011;16245;51.170;4.884;2023-01-01T01:28:17;9.85;;;2.85;;
29202;SDS011;16245;51.170;4.884;2023-01-01T01:30:42;10.43;;;2.92;;
29202;SDS011;16245;51.170;4.884;2023-01-01T01:33:08;12.75;;;3.35;;
29202;SDS011;16245;51.170;4.884;2023-01-01T01:35:34;6.90;;;2.70;;
29202;SDS011;16245;51.170;4.884;2023-01-01T01:38:00;6.20;;;2.25;;
29202;SDS011;16245;51.170;4.884;2023-01-01T01:40:26;12.10;;;2.70;;
29202;SDS011;16245;51.170;4.884;2023-01-01T01:42:52;9.75;;;2.42;;
29202;SDS011;16245;51.170;4.884;2023-01-01T01:45:17;13.32;;;2.70;;
29202;SDS011;16245;51.170;4.884;2023-01-01T01:50:11;12.93;;;2.75;;
29202;SDS011;16245;51.170;4.884;2023-01-01T01:52:57;12.95;;;2.42;;
29202;SDS011;16245;51.170;4.884;2023-01-01T01:55:25;4.53;;;2.28;;
29202;SDS011;16245;51.170;4.884;2023-01-01T01:57:52;8.82;;;2.72;;
29202;SDS011;16245;51.170;4.884;2023-01-01T02:00:18;11.75;;;2.63;;
29202;SDS011;16245;51.170;4.884;2023-01-01T02:02:47;8.82;;;2.40;;
29202;SDS011;16245;51.170;4.884;2023-01-01T02:05:18;10.02;;;2.10;;
29202;SDS011;16245;51.170;4.884;2023-01-01T02:07:46;6.35;;;2.70;;
29202;SDS011;16245;51.170;4.884;2023-01-01T02:10:12;5.40;;;2.20;;
29202;SDS011;16245;51.170;4.884;2023-01-01T02:12:37;9.13;;;2.35;;
29202;SDS011;16245;51.170;4.884;2023-01-01T02:15:03;7.35;;;2.20;;
29202;SDS011;16245;51.170;4.884;2023-01-01T02:17:33;9.70;;;2.38;;
29202;SDS011;16245;51.170;4.884;2023-01-01T02:22:42;5.65;;;2.05;;
29202;SDS011;16245;51.170;4.884;2023-01-01T02:30:51;5.50;;;2.30;;
29202;SDS011;16245;51.170;4.884;2023-01-01T02:33:21;6.82;;;2.70;;
29202;SDS011;16245;51.170;4.884;2023-01-01T02:35:56;5.05;;;2.03;;
29202;SDS011;16245;51.170;4.884;2023-01-01T02:38:29;8.50;;;2.58;;
29202;SDS011;16245;51.170;4.884;2023-01-01T02:41:08;7.63;;;2.63;;
29202;SDS011;16245;51.170;4.884;2023-01-01T02:43:57;6.78;;;2.30;;
29202;SDS011;16245;51.170;4.884;2023-01-01T02:46:22;6.90;;;2.70;;
29202;SDS011;16245;51.170;4.884;2023-01-01T02:48:54;11.30;;;2.42;;
29202;SDS011;16245;51.170;4.884;2023-01-01T02:56:42;6.35;;;2.05;;
29202;SDS011;16245;51.170;4.884;2023-01-01T02:59:16;9.65;;;1.95;;
29202;SDS011;16245;51.170;4.884;2023-01-01T03:15:57;10.48;;;2.88;;
29202;SDS011;16245;51.170;4.884;2023-01-01T03:21:56;8.73;;;2.13;;
29202;SDS011;16245;51.170;4.884;2023-01-01T03:26:46;3.92;;;1.58;;
29202;SDS011;16245;51.170;4.884;2023-01-01T03:29:16;3.67;;;1.70;;
29202;SDS011;16245;51.170;4.884;2023-01-01T03:31:45;9.88;;;2.20;;
29202;SDS011;16245;51.170;4.884;2023-01-01T03:34:17;6.22;;;1.92;;
29202;SDS011;16245;51.170;4.884;2023-01-01T03:36:47;7.13;;;2.60;;
29202;SDS011;16245;51.170;4.884;2023-01-01T03:41:43;4.75;;;2.10;;
29202;SDS011;16245;51.170;4.884;2023-01-01T03:44:16;8.80;;;2.00;;
29202;SDS011;16245;51.170;4.884;2023-01-01T03:46:56;11.10;;;2.40;;
29202;SDS011;16245;51.170;4.884;2023-01-01T03:49:23;15.38;;;2.35;;
29202;SDS011;16245;51.170;4.884;2023-01-01T03:59:33;7.65;;;2.30;;
29202;SDS011;16245;51.170;4.884;2023-01-01T04:02:06;6.30;;;2.30;;
29202;SDS011;16245;51.170;4.884;2023-01-01T04:04:35;9.73;;;2.28;;
29202;SDS011;16245;51.170;4.884;2023-01-01T04:07:01;5.82;;;2.08;;
29202;SDS011;16245;51.170;4.884;2023-01-01T04:09:28;3.95;;;1.75;;
29202;SDS011;16245;51.170;4.884;2023-01-01T04:11:56;7.88;;;2.10;;
29202;SDS011;16245;51.170;4.884;2023-01-01T04:14:33;4.30;;;1.75;;
29202;SDS011;16245;51.170;4.884;2023-01-01T04:17:09;5.70;;;2.05;;
29202;SDS011;16245;51.170;4.884;2023-01-01T04:19:36;12.02;;;2.00;;
29202;SDS011;16245;51.170;4.884;2023-01-01T04:22:02;7.65;;;2.28;;
29202;SDS011;16245;51.170;4.884;2023-01-01T04:24:28;7.40;;;3.20;;
29202;SDS011;16245;51.170;4.884;2023-01-01T04:26:53;5.72;;;2.03;;
29202;SDS011;16245;51.170;4.884;2023-01-01T04:29:20;8.35;;;2.60;;
29202;SDS011;16245;51.170;4.884;2023-01-01T04:31:46;9.13;;;2.30;;
29202;SDS011;16245;51.170;4.884;2023-01-01T04:34:12;5.75;;;2.13;;
29202;SDS011;16245;51.170;4.884;2023-01-01T04:36:37;8.77;;;2.38;;
29202;SDS011;16245;51.170;4.884;2023-01-01T04:39:04;7.80;;;2.47;;
29202;SDS011;16245;51.170;4.884;2023-01-01T04:41:30;11.63;;;2.55;;
29202;SDS011;16245;51.170;4.884;2023-01-01T04:43:56;6.90;;;2.58;;
29202;SDS011;16245;51.170;4.884;2023-01-01T04:46:22;9.80;;;3.00;;
29202;SDS011;16245;51.170;4.884;2023-01-01T04:48:49;5.65;;;2.60;;
29202;SDS011;16245;51.170;4.884;2023-01-01T04:51:15;6.57;;;2.55;;
29202;SDS011;16245;51.170;4.884;2023-01-01T04:53:42;9.82;;;2.80;;
29202;SDS011;16245;51.170;4.884;2023-01-01T04:56:09;6.90;;;2.45;;
29202;SDS011;16245;51.170;4.884;2023-01-01T04:58:37;7.57;;;2.45;;
29202;SDS011;16245;51.170;4.884;2023-01-01T05:01:04;5.07;;;2.22;;
29202;SDS011;16245;51.170;4.884;2023-01-01T05:03:31;8.35;;;2.70;;
29202;SDS011;16245;51.170;4.884;2023-01-01T05:06:04;11.05;;;2.80;;
29202;SDS011;16245;51.170;4.884;2023-01-01T05:08:32;6.70;;;2.40;;
29202;SDS011;16245;51.170;4.884;2023-01-01T05:11:02;10.00;;;2.90;;
29202;SDS011;16245;51.170;4.884;2023-01-01T05:13:34;9.93;;;2.35;;
29202;SDS011;16245;51.170;4.884;2023-01-01T05:16:02;10.73;;;2.63;;
29202;SDS011;16245;51.170;4.884;2023-01-01T05:18:28;10.25;;;2.50;;
29202;SDS011;16245;51.170;4.884;2023-01-01T05:20:58;8.63;;;2.58;;
29202;SDS011;16245;51.170;4.884;2023-01-01T05:23:31;9.32;;;2.03;;
29202;SDS011;16245;51.170;4.884;2023-01-01T05:25:57;6.68;;;2.33;;
29202;SDS011;16245;51.170;4.884;2023-01-01T05:28:23;7.15;;;1.90;;
29202;SDS011;16245;51.170;4.884;2023-01-01T05:30:49;12.77;;;2.72;;
29202;SDS011;16245;51.170;4.884;2023-01-01T05:33:15;7.00;;;2.47;;
29202;SDS011;16245;51.170;4.884;2023-01-01T05:35:41;10.68;;;2.15;;
29202;SDS011;16245;51.170;4.884;2023-01-01T05:38:10;8.80;;;2.60;;
29202;SDS011;16245;51.170;4.884;2023-01-01T05:40:38;10.70;;;2.53;;
29202;SDS011;16245;51.170;4.884;2023-01-01T05:43:05;5.03;;;2.10;;
29202;SDS011;16245;51.170;4.884;2023-01-01T05:45:31;7.20;;;2.35;;
29202;SDS011;16245;51.170;4.884;2023-01-01T05:47:57;6.28;;;1.95;;
29202;SDS011;16245;51.170;4.884;2023-01-01T05:50:23;6.57;;;2.35;;
29202;SDS011;16245;51.170;4.884;2023-01-01T05:52:48;7.13;;;2.40;;
29202;SDS011;16245;51.170;4.884;2023-01-01T05:55:14;7.30;;;2.28;;
29202;SDS011;16245;51.170;4.884;2023-01-01T05:57:40;11.18;;;1.92;;
29202;SDS011;16245;51.170;4.884;2023-01-01T06:00:06;6.95;;;2.45;;
29202;SDS011;16245;51.170;4.884;2023-01-01T06:02:32;9.57;;;2.35;;
29202;SDS011;16245;51.170;4.884;2023-01-01T06:04:57;7.50;;;2.72;;
29202;SDS011;16245;51.170;4.884;2023-01-01T06:07:23;8.35;;;2.88;;
29202;SDS011;16245;51.170;4.884;2023-01-01T06:09:49;8.38;;;2.72;;
29202;SDS011;16245;51.170;4.884;2023-01-01T06:12:14;10.35;;;2.72;;
29202;SDS011;16245;51.170;4.884;2023-01-01T06:14:40;6.93;;;2.40;;
29202;SDS011;16245;51.170;4.884;2023-01-01T06:17:06;5.13;;;1.95;;
29202;SDS011;16245;51.170;4.884;2023-01-01T06:19:32;7.82;;;2.22;;
29202;SDS011;16245;51.170;4.884;2023-01-01T06:21:57;6.45;;;2.72;;
29202;SDS011;16245;51.170;4.884;2023-01-01T06:24:23;8.90;;;2.58;;
29202;SDS011;16245;51.170;4.884;2023-01-01T06:26:49;10.23;;;2.80;;
29202;SDS011;16245;51.170;4.884;2023-01-01T06:29:14;8.73;;;2.83;;
29202;SDS011;16245;51.170;4.884;2023-01-01T06:31:40;8.57;;;2.60;;
29202;SDS011;16245;51.170;4.884;2023-01-01T06:34:05;11.70;;;2.70;;
29202;SDS011;16245;51.170;4.884;2023-01-01T06:36:31;5.05;;;1.92;;
29202;SDS011;16245;51.170;4.884;2023-01-01T06:38:57;5.80;;;1.88;;
29202;SDS011;16245;51.170;4.884;2023-01-01T06:41:24;7.13;;;2.10;;
29202;SDS011;16245;51.170;4.884;2023-01-01T06:43:51;5.55;;;1.60;;
29202;SDS011;16245;51.170;4.884;2023-01-01T06:46:29;7.80;;;1.88;;
29202;SDS011;16245;51.170;4.884;2023-01-01T06:48:57;7.30;;;2.00;;
29202;SDS011;16245;51.170;4.884;2023-01-01T06:51:27;6.57;;;1.92;;
29202;SDS011;16245;51.170;4.884;2023-01-01T06:53:59;5.80;;;2.08;;
29202;SDS011;16245;51.170;4.884;2023-01-01T06:56:26;5.57;;;1.95;;
29202;SDS011;16245;51.170;4.884;2023-01-01T06:58:53;7.60;;;1.30;;
29202;SDS011;16245;51.170;4.884;2023-01-01T07:01:19;5.97;;;1.40;;
29202;SDS011;16245;51.170;4.884;2023-01-01T07:03:53;6.50;;;1.48;;
29202;SDS011;16245;51.170;4.884;2023-01-01T07:06:20;3.92;;;1.35;;
29202;SDS011;16245;51.170;4.884;2023-01-01T07:08:46;6.88;;;1.50;;
29202;SDS011;16245;51.170;4.884;2023-01-01T07:11:11;8.02;;;1.67;;
29202;SDS011;16245;51.170;4.884;2023-01-01T07:13:37;5.55;;;1.40;;
29202;SDS011;16245;51.170;4.884;2023-01-01T07:16:03;5.90;;;1.75;;
29202;SDS011;16245;51.170;4.884;2023-01-01T07:18:30;7.53;;;2.13;;
29202;SDS011;16245;51.170;4.884;2023-01-01T07:20:57;7.20;;;1.50;;
29202;SDS011;16245;51.170;4.884;2023-01-01T07:23:24;7.10;;;2.00;;
29202;SDS011;16245;51.170;4.884;2023-01-01T07:25:52;6.53;;;1.67;;
29202;SDS011;16245;51.170;4.884;2023-01-01T07:28:18;6.50;;;1.60;;
29202;SDS011;16245;51.170;4.884;2023-01-01T07:30:44;5.10;;;1.70;;
29202;SDS011;16245;51.170;4.884;2023-01-01T07:33:11;4.63;;;2.15;;
29202;SDS011;16245;51.170;4.884;2023-01-01T07:35:38;6.93;;;1.73;;
29202;SDS011;16245;51.170;4.884;2023-01-01T07:38:04;8.02;;;1.90;;
29202;SDS011;16245;51.170;4.884;2023-01-01T07:40:30;5.55;;;1.30;;
29202;SDS011;16245;51.170;4.884;2023-01-01T07:42:56;3.42;;;1.45;;
29202;SDS011;16245;51.170;4.884;2023-01-01T07:45:21;3.88;;;1.60;;
29202;SDS011;16245;51.170;4.884;2023-01-01T07:47:49;6.10;;;1.45;;
29202;SDS011;16245;51.170;4.884;2023-01-01T07:50:17;6.65;;;2.03;;
29202;SDS011;16245;51.170;4.884;2023-01-01T07:52:43;5.00;;;1.58;;
29202;SDS011;16245;51.170;4.884;2023-01-01T07:55:13;5.03;;;1.60;;
29202;SDS011;16245;51.170;4.884;2023-01-01T07:57:40;11.57;;;2.17;;
29202;SDS011;16245;51.170;4.884;2023-01-01T08:00:07;6.35;;;2.00;;
29202;SDS011;16245;51.170;4.884;2023-01-01T08:02:34;5.88;;;2.28;;
29202;SDS011;16245;51.170;4.884;2023-01-01T08:04:59;9.07;;;2.65;;
29202;SDS011;16245;51.170;4.884;2023-01-01T08:07:25;8.30;;;2.72;;
29202;SDS011;16245;51.170;4.884;2023-01-01T08:09:51;11.45;;;2.85;;
29202;SDS011;16245;51.170;4.884;2023-01-01T08:12:16;10.27;;;3.10;;
29202;SDS011;16245;51.170;4.884;2023-01-01T08:14:42;9.88;;;2.78;;
29202;SDS011;16245;51.170;4.884;2023-01-01T08:17:07;7.22;;;2.95;;
29202;SDS011;16245;51.170;4.884;2023-01-01T08:19:33;8.23;;;3.00;;
29202;SDS011;16245;51.170;4.884;2023-01-01T08:21:59;11.77;;;3.50;;
29202;SDS011;16245;51.170;4.884;2023-01-01T08:24:24;11.35;;;3.22;;
29202;SDS011;16245;51.170;4.884;2023-01-01T08:26:51;9.05;;;3.35;;
29202;SDS011;16245;51.170;4.884;2023-01-01T08:29:16;13.95;;;3.55;;
29202;SDS011;16245;51.170;4.884;2023-01-01T08:31:42;13.30;;;3.50;;
29202;SDS011;16245;51.170;4.884;2023-01-01T08:34:08;11.57;;;3.30;;
29202;SDS011;16245;51.170;4.884;2023-01-01T08:36:33;10.45;;;3.15;;
29202;SDS011;16245;51.170;4.884;2023-01-01T08:39:00;13.25;;;3.75;;
29202;SDS011;16245;51.170;4.884;2023-01-01T08:41:26;10.75;;;3.47;;
29202;SDS011;16245;51.170;4.884;2023-01-01T08:43:51;12.25;;;2.92;;
29202;SDS011;16245;51.170;4.884;2023-01-01T08:46:17;10.57;;;3.13;;
29202;SDS011;16245;51.170;4.884;2023-01-01T08:48:43;7.40;;;2.85;;
29202;SDS011;16245;51.170;4.884;2023-01-01T08:51:09;8.85;;;2.97;;
29202;SDS011;16245;51.170;4.884;2023-01-01T08:53:34;9.50;;;2.88;;
29202;SDS011;16245;51.170;4.884;2023-01-01T08:56:01;8.65;;;3.25;;
29202;SDS011;16245;51.170;4.884;2023-01-01T08:58:29;8.80;;;3.33;;
29202;SDS011;16245;51.170;4.884;2023-01-01T09:00:54;12.45;;;3.20;;
29202;SDS011;16245;51.170;4.884;2023-01-01T09:03:21;14.02;;;3.25;;
29202;SDS011;16245;51.170;4.884;2023-01-01T09:05:47;10.48;;;3.15;;
29202;SDS011;16245;51.170;4.884;2023-01-01T09:08:13;15.18;;;3.83;;
29202;SDS011;16245;51.170;4.884;2023-01-01T09:10:39;12.80;;;3.60;;
29202;SDS011;16245;51.170;4.884;2023-01-01T09:13:07;7.68;;;2.97;;
29202;SDS011;16245;51.170;4.884;2023-01-01T09:15:37;11.27;;;3.13;;
29202;SDS011;16245;51.170;4.884;2023-01-01T09:18:03;10.73;;;4.00;;
29202;SDS011;16245;51.170;4.884;2023-01-01T09:20:29;11.20;;;3.00;;
29202;SDS011;16245;51.170;4.884;2023-01-01T09:22:55;11.43;;;3.75;;
29202;SDS011;16245;51.170;4.884;2023-01-01T09:25:20;19.50;;;4.15;;
29202;SDS011;16245;51.170;4.884;2023-01-01T09:27:46;13.50;;;3.08;;
29202;SDS011;16245;51.170;4.884;2023-01-01T09:30:12;12.98;;;3.72;;
29202;SDS011;16245;51.170;4.884;2023-01-01T09:32:38;12.02;;;3.88;;
29202;SDS011;16245;51.170;4.884;2023-01-01T09:35:04;14.30;;;3.92;;
29202;SDS011;16245;51.170;4.884;2023-01-01T09:37:30;7.47;;;2.92;;
29202;SDS011;16245;51.170;4.884;2023-01-01T09:39:56;16.08;;;4.88;;
29202;SDS011;16245;51.170;4.884;2023-01-01T09:48:13;10.02;;;3.38;;
29202;SDS011;16245;51.170;4.884;2023-01-01T09:53:14;5.78;;;2.90;;
29202;SDS011;16245;51.170;4.884;2023-01-01T09:55:49;10.48;;;3.47;;
29202;SDS011;16245;51.170;4.884;2023-01-01T09:58:26;7.15;;;2.95;;
29202;SDS011;16245;51.170;4.884;2023-01-01T10:00:57;11.48;;;3.45;;
29202;SDS011;16245;51.170;4.884;2023-01-01T10:03:41;9.10;;;3.35;;
29202;SDS011;16245;51.170;4.884;2023-01-01T10:06:37;15.07;;;4.05;;
29202;SDS011;16245;51.170;4.884;2023-01-01T10:09:22;15.20;;;3.25;;
29202;SDS011;16245;51.170;4.884;2023-01-01T10:12:14;11.82;;;3.88;;
29202;SDS011;16245;51.170;4.884;2023-01-01T10:14:49;9.43;;;3.20;;
29202;SDS011;16245;51.170;4.884;2023-01-01T10:17:29;7.68;;;2.80;;
29202;SDS011;16245;51.170;4.884;2023-01-01T10:20:28;15.02;;;3.40;;
29202;SDS011;16245;51.170;4.884;2023-01-01T10:23:00;10.82;;;3.58;;
29202;SDS011;16245;51.170;4.884;2023-01-01T10:25:44;14.98;;;3.45;;
29202;SDS011;16245;51.170;4.884;2023-01-01T10:28:11;7.88;;;2.72;;
29202;SDS011;16245;51.170;4.884;2023-01-01T10:30:43;13.63;;;3.75;;
29202;SDS011;16245;51.170;4.884;2023-01-01T10:33:12;11.90;;;3.13;;
29202;SDS011;16245;51.170;4.884;2023-01-01T10:35:50;8.90;;;2.63;;
29202;SDS011;16245;51.170;4.884;2023-01-01T10:38:21;7.70;;;2.45;;
29202;SDS011;16245;51.170;4.884;2023-01-01T10:40:52;10.30;;;2.53;;
29202;SDS011;16245;51.170;4.884;2023-01-01T10:43:22;10.90;;;3.47;;
29202;SDS011;16245;51.170;4.884;2023-01-01T10:45:49;10.27;;;3.65;;
29202;SDS011;16245;51.170;4.884;2023-01-01T10:50:51;9.77;;;2.85;;
29202;SDS011;16245;51.170;4.884;2023-01-01T10:53:30;10.75;;;2.78;;
29202;SDS011;16245;51.170;4.884;2023-01-01T10:56:16;10.10;;;3.17;;
29202;SDS011;16245;51.170;4.884;2023-01-01T10:58:48;7.15;;;2.78;;
29202;SDS011;16245;51.170;4.884;2023-01-01T11:03:56;10.70;;;3.58;;
29202;SDS011;16245;51.170;4.884;2023-01-01T11:06:37;11.80;;;3.08;;
29202;SDS011;16245;51.170;4.884;2023-01-01T11:09:21;14.00;;;3.30;;
29202;SDS011;16245;51.170;4.884;2023-01-01T11:11:59;11.40;;;3.25;;
29202;SDS011;16245;51.170;4.884;2023-01-01T11:15:02;10.70;;;3.78;;
29202;SDS011;16245;51.170;4.884;2023-01-01T11:17:28;11.70;;;2.95;;
29202;SDS011;16245;51.170;4.884;2023-01-01T11:19:56;14.20;;;3.33;;
29202;SDS011;16245;51.170;4.884;2023-01-01T11:22:34;14.10;;;3.17;;
29202;SDS011;16245;51.170;4.884;2023-01-01T11:27:51;11.32;;;2.85;;
29202;SDS011;16245;51.170;4.884;2023-01-01T11:30:36;8.40;;;2.70;;
29202;SDS011;16245;51.170;4.884;2023-01-01T11:33:03;8.55;;;2.65;;
29202;SDS011;16245;51.170;4.884;2023-01-01T11:35:30;11.63;;;4.15;;
29202;SDS011;16245;51.170;4.884;2023-01-01T11:38:02;8.50;;;2.67;;
29202;SDS011;16245;51.170;4.884;2023-01-01T11:40:35;8.70;;;3.08;;
29202;SDS011;16245;51.170;4.884;2023-01-01T11:43:03;13.82;;;3.22;;
29202;SDS011;16245;51.170;4.884;2023-01-01T11:45:37;10.02;;;2.55;;
29202;SDS011;16245;51.170;4.884;2023-01-01T11:48:24;8.85;;;2.92;;
29202;SDS011;16245;51.170;4.884;2023-01-01T11:50:57;9.25;;;2.50;;
29202;SDS011;16245;51.170;4.884;2023-01-01T11:53:30;11.57;;;2.30;;
29202;SDS011;16245;51.170;4.884;2023-01-01T12:01:05;12.27;;;2.97;;
29202;SDS011;16245;51.170;4.884;2023-01-01T12:03:45;11.35;;;2.90;;
29202;SDS011;16245;51.170;4.884;2023-01-01T12:06:28;14.07;;;3.00;;
29202;SDS011;16245;51.170;4.884;2023-01-01T12:09:06;11.93;;;3.33;;
29202;SDS011;16245;51.170;4.884;2023-01-01T12:22:49;12.65;;;3.33;;
29202;SDS011;16245;51.170;4.884;2023-01-01T12:25:19;13.77;;;2.75;;
29202;SDS011;16245;51.170;4.884;2023-01-01T12:41:20;9.05;;;2.75;;
29202;SDS011;16245;51.170;4.884;2023-01-01T12:44:13;11.20;;;2.33;;
29202;SDS011;16245;51.170;4.884;2023-01-01T12:49:38;14.35;;;3.00;;
29202;SDS011;16245;51.170;4.884;2023-01-01T12:58:04;7.28;;;2.15;;
29202;SDS011;16245;51.170;4.884;2023-01-01T13:00:40;10.27;;;2.75;;
29202;SDS011;16245;51.170;4.884;2023-01-01T13:03:22;15.43;;;2.92;;
29202;SDS011;16245;51.170;4.884;2023-01-01T13:05:52;13.13;;;3.10;;
29202;SDS011;16245;51.170;4.884;2023-01-01T13:08:20;14.85;;;3.13;;
29202;SDS011;16245;51.170;4.884;2023-01-01T13:10:46;15.70;;;2.80;;
29202;SDS011;16245;51.170;4.884;2023-01-01T13:13:15;11.10;;;3.70;;
29202;SDS011;16245;51.170;4.884;2023-01-01T13:20:39;10.00;;;2.72;;
29202;SDS011;16245;51.170;4.884;2023-01-01T13:39:53;15.98;;;3.50;;
29202;SDS011;16245;51.170;4.884;2023-01-01T13:45:28;9.88;;;2.97;;
29202;SDS011;16245;51.170;4.884;2023-01-01T13:48:25;10.65;;;2.65;;
29202;SDS011;16245;51.170;4.884;2023-01-01T13:53:39;12.57;;;3.00;;
29202;SDS011;16245;51.170;4.884;2023-01-01T13:56:49;13.48;;;3.13;;
29202;SDS011;16245;51.170;4.884;2023-01-01T14:02:07;10.55;;;3.97;;
29202;SDS011;16245;51.170;4.884;2023-01-01T14:04:50;11.57;;;4.72;;
29202;SDS011;16245;51.170;4.884;2023-01-01T14:07:29;12.90;;;4.13;;
29202;SDS011;16245;51.170;4.884;2023-01-01T14:12:43;11.68;;;2.95;;
29202;SDS011;16245;51.170;4.884;2023-01-01T14:17:49;13.40;;;3.50;;
29202;SDS011;16245;51.170;4.884;2023-01-01T14:20:17;15.02;;;4.10;;
29202;SDS011;16245;51.170;4.884;2023-01-01T14:22:46;13.57;;;3.42;;
29202;SDS011;16245;51.170;4.884;2023-01-01T14:25:15;12.95;;;3.88;;
29202;SDS011;16245;51.170;4.884;2023-01-01T14:27:53;11.45;;;3.40;;
29202;SDS011;16245;51.170;4.884;2023-01-01T14:30:21;12.48;;;3.80;;
29202;SDS011;16245;51.170;4.884;2023-01-01T14:32:56;10.85;;;3.08;;
29202;SDS011;16245;51.170;4.884;2023-01-01T14:35:24;15.38;;;3.97;;
29202;SDS011;16245;51.170;4.884;2023-01-01T14:37:50;14.32;;;3.78;;
29202;SDS011;16245;51.170;4.884;2023-01-01T14:42:50;11.63;;;3.53;;
29202;SDS011;16245;51.170;4.884;2023-01-01T14:45:36;13.77;;;3.63;;
29202;SDS011;16245;51.170;4.884;2023-01-01T14:48:10;13.10;;;3.47;;
29202;SDS011;16245;51.170;4.884;2023-01-01T14:50:45;12.38;;;3.63;;
29202;SDS011;16245;51.170;4.884;2023-01-01T14:53:13;16.23;;;4.32;;
29202;SDS011;16245;51.170;4.884;2023-01-01T14:55:46;11.48;;;3.95;;
29202;SDS011;16245;51.170;4.884;2023-01-01T14:58:21;14.48;;;3.97;;
29202;SDS011;16245;51.170;4.884;2023-01-01T15:00:49;14.02;;;3.35;;
29202;SDS011;16245;51.170;4.884;2023-01-01T15:03:21;11.15;;;3.85;;
29202;SDS011;16245;51.170;4.884;2023-01-01T15:05:57;14.52;;;4.15;;
29202;SDS011;16245;51.170;4.884;2023-01-01T15:08:26;14.20;;;3.70;;
29202;SDS011;16245;51.170;4.884;2023-01-01T15:10:52;10.77;;;3.95;;
29202;SDS011;16245;51.170;4.884;2023-01-01T15:13:20;15.13;;;4.28;;
29202;SDS011;16245;51.170;4.884;2023-01-01T15:15:48;10.27;;;3.17;;
29202;SDS011;16245;51.170;4.884;2023-01-01T15:21:16;12.02;;;3.20;;
29202;SDS011;16245;51.170;4.884;2023-01-01T15:31:52;9.82;;;4.07;;
29202;SDS011;16245;51.170;4.884;2023-01-01T15:34:23;11.68;;;3.45;;
29202;SDS011;16245;51.170;4.884;2023-01-01T15:36:51;14.95;;;4.18;;
29202;SDS011;16245;51.170;4.884;2023-01-01T15:39:18;11.55;;;3.33;;
29202;SDS011;16245;51.170;4.884;2023-01-01T15:41:49;14.00;;;4.90;;
29202;SDS011;16245;51.170;4.884;2023-01-01T15:44:20;10.45;;;5.20;;
29202;SDS011;16245;51.170;4.884;2023-01-01T15:46:51;17.15;;;5.85;;
29202;SDS011;16245;51.170;4.884;2023-01-01T15:49:24;14.77;;;4.63;;
29202;SDS011;16245;51.170;4.884;2023-01-01T15:51:55;13.57;;;4.18;;
29202;SDS011;16245;51.170;4.884;2023-01-01T15:54:31;10.77;;;3.60;;
29202;SDS011;16245;51.170;4.884;2023-01-01T15:57:02;15.07;;;3.92;;
29202;SDS011;16245;51.170;4.884;2023-01-01T15:59:34;14.98;;;6.30;;
29202;SDS011;16245;51.170;4.884;2023-01-01T16:02:10;21.50;;;10.70;;
29202;SDS011;16245;51.170;4.884;2023-01-01T16:04:43;13.38;;;4.05;;
29202;SDS011;16245;51.170;4.884;2023-01-01T16:07:20;13.95;;;3.67;;
29202;SDS011;16245;51.170;4.884;2023-01-01T16:09:48;13.18;;;3.80;;
29202;SDS011;16245;51.170;4.884;2023-01-01T16:12:15;13.38;;;3.33;;
29202;SDS011;16245;51.170;4.884;2023-01-01T16:14:41;8.50;;;3.22;;
29202;SDS011;16245;51.170;4.884;2023-01-01T16:17:16;7.82;;;2.45;;
29202;SDS011;16245;51.170;4.884;2023-01-01T16:19:44;8.88;;;2.72;;
29202;SDS011;16245;51.170;4.884;2023-01-01T16:22:11;8.20;;;2.67;;
29202;SDS011;16245;51.170;4.884;2023-01-01T16:24:38;11.15;;;2.72;;
29202;SDS011;16245;51.170;4.884;2023-01-01T16:27:04;9.38;;;2.85;;
29202;SDS011;16245;51.170;4.884;2023-01-01T16:29:30;8.20;;;2.40;;
29202;SDS011;16245;51.170;4.884;2023-01-01T16:31:55;7.40;;;2.40;;
29202;SDS011;16245;51.170;4.884;2023-01-01T16:34:21;8.52;;;2.85;;
29202;SDS011;16245;51.170;4.884;2023-01-01T16:36:46;7.07;;;3.08;;
29202;SDS011;16245;51.170;4.884;2023-01-01T16:39:12;7.40;;;2.92;;
29202;SDS011;16245;51.170;4.884;2023-01-01T16:41:38;8.18;;;3.17;;
29202;SDS011;16245;51.170;4.884;2023-01-01T16:44:06;13.88;;;2.95;;
29202;SDS011;16245;51.170;4.884;2023-01-01T16:46:37;7.85;;;2.70;;
29202;SDS011;16245;51.170;4.884;2023-01-01T16:49:03;7.63;;;3.95;;
29202;SDS011;16245;51.170;4.884;2023-01-01T16:51:29;11.23;;;3.20;;
29202;SDS011;16245;51.170;4.884;2023-01-01T16:53:55;9.88;;;2.78;;
29202;SDS011;16245;51.170;4.884;2023-01-01T16:56:23;8.75;;;2.85;;
29202;SDS011;16245;51.170;4.884;2023-01-01T16:58:48;6.82;;;2.20;;
29202;SDS011;16245;51.170;4.884;2023-01-01T17:01:14;6.05;;;3.13;;
29202;SDS011;16245;51.170;4.884;2023-01-01T17:03:40;5.32;;;2.40;;
29202;SDS011;16245;51.170;4.884;2023-01-01T17:06:06;7.40;;;2.78;;
29202;SDS011;16245;51.170;4.884;2023-01-01T17:08:34;12.38;;;2.67;;
29202;SDS011;16245;51.170;4.884;2023-01-01T17:11:01;8.93;;;2.72;;
29202;SDS011;16245;51.170;4.884;2023-01-01T17:13:31;7.80;;;2.83;;
29202;SDS011;16245;51.170;4.884;2023-01-01T17:16:00;10.35;;;3.67;;
29202;SDS011;16245;51.170;4.884;2023-01-01T17:18:27;8.07;;;3.15;;
29202;SDS011;16245;51.170;4.884;2023-01-01T17:20:52;10.63;;;2.70;;
29202;SDS011;16245;51.170;4.884;2023-01-01T17:23:18;6.70;;;2.75;;
29202;SDS011;16245;51.170;4.884;2023-01-01T17:25:44;6.25;;;2.88;;
29202;SDS011;16245;51.170;4.884;2023-01-01T17:28:10;8.07;;;2.60;;